createdAt,value
2017-11-30T00:01:25.951Z,3.55
2017-11-30T00:03:53.918Z,3.47
2017-11-30T00:06:21.510Z,3.54
2017-11-30T00:08:49.344Z,3.49
2017-11-30T00:11:16.941Z,3.46
2017-11-30T00:13:44.776Z,3.52
2017-11-30T00:16:12.406Z,3.53
2017-11-30T00:18:40.324Z,3.60
2017-11-30T00:21:07.986Z,3.60
2017-11-30T00:23:35.611Z,3.61
2017-11-30T00:26:03.517Z,3.63
2017-11-30T00:28:31.160Z,3.62
2017-11-30T00:30:59.042Z,3.63
2017-11-30T00:33:26.909Z,3.65
2017-11-30T00:35:54.533Z,3.70
2017-11-30T00:38:22.134Z,3.71
2017-11-30T00:40:49.741Z,3.74
2017-11-30T00:43:29.237Z,3.73
2017-11-30T00:45:56.849Z,3.76
2017-11-30T00:48:24.761Z,3.75
2017-11-30T00:50:52.389Z,3.66
2017-11-30T00:53:20.007Z,3.70
2017-11-30T00:55:47.590Z,3.69
2017-11-30T00:58:15.516Z,3.70
2017-11-30T01:00:43.120Z,3.74
2017-11-30T01:03:10.718Z,3.74
2017-11-30T01:05:38.600Z,3.76
2017-11-30T01:08:06.185Z,3.80
2017-11-30T01:10:33.777Z,3.79
2017-11-30T01:13:01.404Z,3.81
2017-11-30T01:15:28.989Z,3.80
2017-11-30T01:17:56.648Z,3.80
2017-11-30T01:20:24.244Z,3.71
2017-11-30T01:22:51.848Z,3.72
2017-11-30T01:25:19.489Z,3.73
2017-11-30T01:27:47.082Z,3.77
2017-11-30T01:30:14.814Z,3.78
2017-11-30T01:32:42.405Z,3.79
2017-11-30T01:35:10.259Z,3.80
2017-11-30T01:37:37.879Z,3.75
2017-11-30T01:40:05.828Z,3.75
2017-11-30T01:42:33.446Z,3.69
2017-11-30T01:45:01.320Z,3.67
2017-11-30T01:47:29.182Z,3.67
2017-11-30T01:49:56.794Z,3.68
2017-11-30T01:52:24.386Z,3.64
2017-11-30T01:54:52.269Z,3.64
2017-11-30T01:57:19.853Z,3.57
2017-11-30T01:59:47.701Z,3.45
2017-11-30T02:02:15.325Z,3.44
2017-11-30T02:04:42.937Z,3.45
2017-11-30T02:07:10.564Z,3.43
2017-11-30T02:09:38.145Z,3.38
2017-11-30T02:12:05.748Z,3.36
2017-11-30T02:14:33.360Z,3.31
2017-11-30T02:17:00.939Z,3.36
2017-11-30T02:19:28.578Z,3.24
2017-11-30T02:21:56.149Z,3.18
2017-11-30T02:24:23.725Z,3.19
2017-11-30T02:26:51.349Z,3.17
2017-11-30T02:29:18.940Z,3.19
2017-11-30T02:31:46.986Z,3.23
2017-11-30T02:34:14.880Z,3.20
2017-11-30T02:36:43.171Z,3.25
2017-11-30T02:39:10.790Z,3.30
2017-11-30T02:41:38.378Z,3.29
2017-11-30T02:44:06.280Z,3.33
2017-11-30T02:46:33.882Z,3.15
2017-11-30T02:49:01.468Z,3.23
2017-11-30T02:51:29.123Z,3.21
2017-11-30T02:53:57.010Z,3.21
2017-11-30T02:56:24.633Z,3.25
2017-11-30T02:58:52.205Z,3.23
2017-11-30T03:01:19.787Z,3.30
2017-11-30T03:03:47.393Z,3.30
2017-11-30T03:06:15.326Z,3.19
2017-11-30T03:08:42.957Z,3.23
2017-11-30T03:11:10.854Z,3.16
2017-11-30T03:13:38.449Z,3.16
2017-11-30T03:16:06.066Z,3.20
2017-11-30T03:18:33.669Z,3.18
2017-11-30T03:21:01.291Z,2.95
2017-11-30T03:23:28.890Z,3.01
2017-11-30T03:25:56.471Z,2.99
2017-11-30T03:28:24.394Z,2.92
2017-11-30T03:30:52.007Z,2.90
2017-11-30T03:33:19.623Z,2.94
2017-11-30T03:35:47.486Z,2.90
2017-11-30T03:38:15.069Z,2.96
2017-11-30T03:40:43.016Z,3.02
2017-11-30T03:43:10.619Z,3.09
2017-11-30T03:45:38.290Z,3.07
2017-11-30T03:48:06.214Z,2.96
2017-11-30T03:50:33.809Z,2.99
2017-11-30T03:53:01.435Z,3.05
2017-11-30T03:55:29.029Z,3.08
2017-11-30T03:57:56.973Z,3.17
2017-11-30T04:00:24.559Z,3.18
2017-11-30T04:02:52.133Z,2.96
2017-11-30T04:05:19.745Z,3.02
2017-11-30T04:07:47.343Z,3.11
2017-11-30T04:10:14.965Z,3.13
2017-11-30T04:12:42.542Z,3.14
2017-11-30T04:15:10.133Z,3.21
2017-11-30T04:17:38.072Z,2.99
2017-11-30T04:20:05.662Z,3.06
2017-11-30T04:22:33.599Z,3.15
2017-11-30T04:25:01.189Z,3.18
2017-11-30T04:27:28.769Z,3.17
2017-11-30T04:29:56.376Z,3.16
2017-11-30T04:32:23.958Z,3.20
2017-11-30T04:34:51.628Z,3.27
2017-11-30T04:37:19.488Z,3.33
2017-11-30T04:39:47.356Z,3.36
2017-11-30T04:42:15.327Z,3.40
2017-11-30T04:44:42.902Z,3.38
2017-11-30T04:47:10.858Z,3.35
2017-11-30T04:49:38.725Z,3.30
2017-11-30T04:52:06.293Z,3.24
2017-11-30T04:54:33.946Z,3.18
2017-11-30T04:57:01.533Z,3.14
2017-11-30T04:59:29.166Z,3.09
2017-11-30T05:01:57.614Z,3.08
2017-11-30T05:04:25.230Z,3.15
2017-11-30T05:06:53.178Z,3.10
2017-11-30T05:09:21.151Z,3.08
2017-11-30T05:11:48.793Z,3.11
2017-11-30T05:14:16.674Z,3.19
2017-11-30T05:16:44.270Z,3.23
2017-11-30T05:19:11.881Z,3.22
2017-11-30T05:21:39.766Z,3.27
2017-11-30T05:24:07.747Z,3.27
2017-11-30T05:26:35.325Z,3.27
2017-11-30T05:29:03.264Z,3.19
2017-11-30T05:31:31.245Z,3.23
2017-11-30T05:33:58.826Z,3.22
2017-11-30T05:36:26.451Z,3.29
2017-11-30T05:38:54.027Z,3.31
2017-11-30T05:41:21.633Z,3.32
2017-11-30T05:43:49.238Z,3.37
2017-11-30T05:46:16.818Z,3.36
2017-11-30T05:48:44.438Z,3.36
2017-11-30T05:51:12.017Z,3.33
2017-11-30T05:53:39.596Z,3.31
2017-11-30T05:56:07.212Z,3.38
2017-11-30T05:58:34.796Z,3.43
2017-11-30T06:01:02.419Z,3.45
2017-11-30T06:03:30.346Z,3.46
2017-11-30T06:05:57.945Z,3.44
2017-11-30T06:08:25.573Z,3.45
2017-11-30T06:10:53.189Z,3.49
2017-11-30T06:13:20.850Z,3.51
2017-11-30T06:15:48.434Z,3.50
2017-11-30T06:18:16.013Z,3.49
2017-11-30T06:20:44.273Z,3.51
2017-11-30T06:23:11.889Z,3.49
2017-11-30T06:25:39.504Z,3.42
2017-11-30T06:28:07.088Z,3.41
2017-11-30T06:30:34.689Z,3.45
2017-11-30T06:33:02.289Z,3.47
2017-11-30T06:35:31.214Z,3.55
2017-11-30T06:37:58.833Z,3.55
2017-11-30T06:40:26.413Z,3.55
2017-11-30T06:42:54.018Z,3.60
2017-11-30T06:45:21.626Z,3.63
2017-11-30T06:47:49.508Z,3.66
2017-11-30T06:50:17.140Z,3.67
2017-11-30T06:52:44.753Z,3.64
2017-11-30T06:55:12.338Z,3.67
2017-11-30T06:57:39.950Z,3.71
2017-11-30T07:00:07.544Z,3.73
2017-11-30T07:02:35.185Z,3.72
2017-11-30T07:05:02.818Z,3.70
2017-11-30T07:07:30.399Z,3.64
2017-11-30T07:09:58.008Z,3.65
2017-11-30T07:12:25.593Z,3.67
2017-11-30T07:14:53.213Z,3.74
2017-11-30T07:17:20.803Z,3.72
2017-11-30T07:19:48.461Z,3.75
2017-11-30T07:22:16.141Z,3.77
2017-11-30T07:24:43.722Z,3.81
2017-11-30T07:27:11.516Z,3.80
2017-11-30T07:29:39.115Z,3.73
2017-11-30T07:32:06.709Z,3.77
2017-11-30T07:34:34.319Z,3.78
2017-11-30T07:37:01.930Z,3.67
2017-11-30T07:39:29.830Z,3.63
2017-11-30T07:41:57.528Z,3.60
2017-11-30T07:44:25.706Z,3.63
2017-11-30T07:46:53.293Z,3.62
2017-11-30T07:49:20.906Z,3.72
2017-11-30T07:51:48.498Z,3.77
2017-11-30T07:54:16.094Z,3.79
2017-11-30T07:56:43.868Z,3.83
2017-11-30T07:59:11.534Z,3.72
2017-11-30T08:01:39.176Z,3.77
2017-11-30T08:04:06.767Z,3.80
2017-11-30T08:06:34.341Z,3.73
2017-11-30T08:09:01.987Z,3.66
2017-11-30T08:11:30.110Z,3.64
2017-11-30T08:13:57.975Z,3.69
2017-11-30T08:16:25.645Z,3.79
2017-11-30T08:18:53.260Z,3.86
2017-11-30T08:21:20.874Z,3.93
2017-11-30T08:23:48.462Z,3.93
2017-11-30T08:26:16.086Z,3.96
2017-11-30T08:28:43.684Z,3.97
2017-11-30T08:31:11.266Z,4.00
2017-11-30T08:33:38.896Z,4.00
2017-11-30T08:36:06.507Z,4.00
2017-11-30T08:38:34.131Z,4.03
2017-11-30T08:41:01.729Z,4.07
2017-11-30T08:43:29.343Z,4.05
2017-11-30T08:45:57.239Z,4.04
2017-11-30T08:48:24.824Z,4.13
2017-11-30T08:50:52.841Z,4.15
2017-11-30T08:53:20.414Z,4.09
2017-11-30T08:55:48.002Z,4.12
2017-11-30T08:58:15.633Z,4.13
2017-11-30T09:00:43.215Z,4.17
2017-11-30T09:03:10.868Z,4.17
2017-11-30T09:05:38.473Z,4.19
2017-11-30T09:08:06.063Z,4.24
2017-11-30T09:10:33.676Z,4.28
2017-11-30T09:13:01.266Z,4.29
2017-11-30T09:15:28.893Z,4.32
2017-11-30T09:17:56.485Z,4.33
2017-11-30T09:20:24.094Z,4.37
2017-11-30T09:22:51.710Z,4.42
2017-11-30T09:25:19.305Z,4.40
2017-11-30T09:27:46.922Z,4.44
2017-11-30T09:30:14.505Z,4.46
2017-11-30T09:32:42.085Z,4.48
2017-11-30T09:35:09.997Z,4.57
2017-11-30T09:37:37.575Z,4.49
2017-11-30T09:40:05.184Z,4.52
2017-11-30T09:42:32.768Z,4.51
2017-11-30T09:45:00.374Z,4.53
2017-11-30T09:47:27.992Z,4.56
2017-11-30T09:49:55.577Z,4.56
2017-11-30T09:52:23.210Z,4.54
2017-11-30T09:54:50.822Z,4.56
2017-11-30T09:57:18.398Z,4.51
2017-11-30T09:59:46.007Z,4.53
2017-11-30T10:02:13.578Z,4.58
2017-11-30T10:04:41.197Z,4.52
2017-11-30T10:07:08.778Z,4.57
2017-11-30T10:09:36.418Z,4.62
2017-11-30T10:12:04.038Z,4.67
2017-11-30T10:14:31.629Z,4.68
2017-11-30T10:16:59.244Z,4.68
2017-11-30T10:19:26.833Z,4.71
2017-11-30T10:21:54.428Z,4.75
2017-11-30T10:24:22.044Z,4.76
2017-11-30T10:26:49.645Z,4.83
2017-11-30T10:29:17.268Z,4.85
2017-11-30T10:31:45.113Z,4.94
2017-11-30T10:34:12.986Z,5.04
2017-11-30T10:36:40.625Z,5.12
2017-11-30T10:39:08.216Z,5.13
2017-11-30T10:41:35.842Z,5.04
2017-11-30T10:44:03.414Z,5.00
2017-11-30T10:46:30.995Z,4.76
2017-11-30T10:48:58.865Z,4.57
2017-11-30T10:51:26.467Z,4.69
2017-11-30T10:53:54.084Z,4.89
2017-11-30T10:56:21.666Z,4.95
2017-11-30T10:58:49.272Z,4.88
2017-11-30T11:01:16.937Z,5.02
2017-11-30T11:03:44.507Z,5.06
2017-11-30T11:06:12.133Z,5.09
2017-11-30T11:08:40.065Z,5.30
2017-11-30T11:11:07.729Z,5.50
2017-11-30T11:13:35.341Z,5.96
2017-11-30T11:16:03.261Z,6.15
2017-11-30T11:18:30.954Z,6.44
2017-11-30T11:20:58.786Z,6.61
2017-11-30T11:23:26.371Z,6.79
2017-11-30T11:25:54.008Z,6.61
2017-11-30T11:28:21.638Z,6.61
2017-11-30T11:30:49.282Z,6.60
2017-11-30T11:33:16.857Z,6.49
2017-11-30T11:35:44.450Z,6.59
2017-11-30T11:38:12.067Z,6.58
2017-11-30T11:40:39.638Z,6.66
2017-11-30T11:43:07.254Z,6.60
2017-11-30T11:45:34.844Z,6.41
2017-11-30T11:48:02.417Z,6.18
2017-11-30T11:50:30.137Z,6.04
2017-11-30T11:52:57.728Z,5.93
2017-11-30T11:55:25.346Z,5.76
2017-11-30T11:57:52.935Z,5.89
2017-11-30T12:00:20.516Z,5.87
2017-11-30T12:02:48.453Z,5.82
2017-11-30T12:05:16.037Z,5.97
2017-11-30T12:07:43.700Z,5.94
2017-11-30T12:10:11.277Z,5.92
2017-11-30T12:12:39.201Z,5.86
2017-11-30T12:15:07.300Z,5.97
2017-11-30T12:17:34.945Z,6.09
2017-11-30T12:20:02.663Z,6.13
2017-11-30T12:22:30.267Z,6.10
2017-11-30T12:25:00.989Z,6.17
2017-11-30T12:27:28.589Z,6.17
2017-11-30T12:29:56.169Z,6.16
2017-11-30T12:32:23.879Z,6.09
2017-11-30T12:34:52.349Z,6.04
2017-11-30T12:37:20.047Z,5.96
2017-11-30T12:39:47.680Z,5.84
2017-11-30T12:42:15.293Z,5.79
2017-11-30T12:44:42.937Z,5.69
2017-11-30T12:47:10.521Z,5.69
2017-11-30T12:49:38.122Z,5.62
2017-11-30T12:52:05.762Z,5.70
2017-11-30T12:54:33.334Z,5.64
2017-11-30T12:57:00.997Z,5.52
2017-11-30T12:59:28.595Z,5.50
2017-11-30T13:01:56.183Z,5.51
2017-11-30T13:04:23.782Z,5.50
2017-11-30T13:06:51.357Z,5.54
2017-11-30T13:09:18.997Z,5.49
2017-11-30T13:11:46.580Z,5.44
2017-11-30T13:14:14.224Z,5.47
2017-11-30T13:16:41.837Z,5.40
2017-11-30T13:19:09.418Z,5.27
2017-11-30T13:21:37.044Z,5.26
2017-11-30T13:24:04.637Z,5.22
2017-11-30T13:26:32.213Z,5.25
2017-11-30T13:28:59.843Z,5.29
2017-11-30T13:31:27.416Z,5.45
2017-11-30T13:33:55.284Z,5.48
2017-11-30T13:36:22.863Z,5.41
2017-11-30T13:38:50.464Z,5.33
2017-11-30T13:41:18.065Z,5.25
2017-11-30T13:43:45.642Z,5.11
2017-11-30T13:46:13.320Z,5.07
2017-11-30T13:48:40.907Z,4.94
2017-11-30T13:51:08.794Z,4.95
2017-11-30T13:53:36.665Z,4.91
2017-11-30T13:56:04.237Z,4.96
2017-11-30T13:58:32.092Z,4.90
2017-11-30T14:00:59.687Z,4.86
2017-11-30T14:03:27.316Z,4.85
2017-11-30T14:05:54.909Z,4.81
2017-11-30T14:08:22.484Z,4.81
2017-11-30T14:10:50.100Z,4.74
2017-11-30T14:13:17.693Z,4.66
2017-11-30T14:15:45.316Z,4.51
2017-11-30T14:18:12.896Z,4.42
2017-11-30T14:20:40.471Z,4.38
2017-11-30T14:23:08.421Z,4.33
2017-11-30T14:25:36.285Z,4.31
2017-11-30T14:28:03.873Z,4.27
2017-11-30T14:30:31.498Z,4.21
2017-11-30T14:32:59.088Z,4.16
2017-11-30T14:35:26.673Z,4.09
2017-11-30T14:37:54.290Z,4.05
2017-11-30T14:40:21.870Z,4.00
2017-11-30T14:42:49.445Z,4.01
2017-11-30T14:45:17.071Z,3.94
2017-11-30T14:47:44.688Z,3.92
2017-11-30T14:50:12.315Z,3.96
2017-11-30T14:52:39.893Z,3.97
2017-11-30T14:55:07.475Z,3.98
2017-11-30T14:57:35.095Z,4.03
2017-11-30T15:00:02.677Z,4.05
2017-11-30T15:02:30.626Z,3.94
2017-11-30T15:04:58.271Z,3.93
2017-11-30T15:07:26.156Z,3.84
2017-11-30T15:09:53.770Z,3.82
2017-11-30T15:12:21.348Z,3.73
2017-11-30T15:14:48.972Z,3.73
2017-11-30T15:17:16.576Z,3.70
2017-11-30T15:19:44.157Z,3.69
2017-11-30T15:22:11.772Z,3.73
2017-11-30T15:24:39.392Z,3.79
2017-11-30T15:27:07.021Z,3.81
2017-11-30T15:29:34.607Z,3.76
2017-11-30T15:32:02.517Z,3.66
2017-11-30T15:34:30.446Z,3.71
2017-11-30T15:36:58.309Z,3.69
2017-11-30T15:39:26.282Z,3.66
2017-11-30T15:41:53.867Z,3.62
2017-11-30T15:44:21.498Z,3.55
2017-11-30T15:46:49.372Z,3.54
2017-11-30T15:49:16.960Z,3.53
2017-11-30T15:51:44.585Z,3.53
2017-11-30T15:54:12.161Z,3.53
2017-11-30T15:56:39.759Z,3.52
2017-11-30T15:59:07.383Z,3.50
2017-11-30T16:01:34.977Z,3.52
2017-11-30T16:04:02.614Z,3.53
2017-11-30T16:06:30.231Z,3.52
2017-11-30T16:08:57.839Z,3.49
2017-11-30T16:11:25.453Z,3.43
2017-11-30T16:13:53.043Z,3.39
2017-11-30T16:16:20.660Z,3.39
2017-11-30T16:18:48.253Z,3.40
2017-11-30T16:21:15.861Z,3.40
2017-11-30T16:23:43.487Z,3.43
2017-11-30T16:26:11.096Z,3.47
2017-11-30T16:28:38.724Z,3.49
2017-11-30T16:31:06.320Z,3.42
2017-11-30T16:33:34.251Z,3.43
2017-11-30T16:36:01.934Z,3.45
2017-11-30T16:38:29.517Z,3.43
2017-11-30T16:40:57.137Z,3.48
2017-11-30T16:43:24.737Z,3.45
2017-11-30T16:45:52.580Z,3.36
2017-11-30T16:48:20.245Z,3.34
2017-11-30T16:50:47.839Z,3.34
2017-11-30T16:53:16.021Z,3.36
2017-11-30T16:55:44.595Z,3.47
2017-11-30T16:58:13.071Z,3.44
2017-11-30T17:00:41.499Z,3.32
2017-11-30T17:03:09.620Z,3.38
2017-11-30T17:05:37.575Z,3.32
2017-11-30T17:08:08.031Z,3.36
2017-11-30T17:10:36.165Z,3.40
2017-11-30T17:13:03.784Z,3.34
2017-11-30T17:15:31.359Z,3.33
2017-11-30T17:17:58.977Z,3.31
2017-11-30T17:20:26.580Z,3.33
2017-11-30T17:22:54.184Z,3.36
2017-11-30T17:25:21.787Z,3.37
2017-11-30T17:27:49.359Z,3.39
2017-11-30T17:30:17.044Z,3.38
2017-11-30T17:32:44.928Z,3.36
2017-11-30T17:35:12.508Z,3.50
2017-11-30T17:37:40.460Z,3.43
2017-11-30T17:40:08.211Z,3.36
2017-11-30T17:42:35.840Z,3.33
2017-11-30T17:45:03.476Z,3.33
2017-11-30T17:47:31.095Z,3.37
2017-11-30T17:49:58.750Z,3.30
2017-11-30T17:52:26.328Z,3.33
2017-11-30T17:54:54.045Z,3.29
2017-11-30T17:57:21.666Z,3.29
2017-11-30T17:59:49.528Z,3.28
2017-11-30T18:02:17.194Z,3.28
2017-11-30T18:04:44.818Z,3.27
2017-11-30T18:07:12.724Z,3.27
2017-11-30T18:09:40.318Z,3.27
2017-11-30T18:12:08.152Z,3.27
2017-11-30T18:14:35.759Z,3.27
2017-11-30T18:17:03.345Z,3.28
2017-11-30T18:19:30.974Z,3.30
2017-11-30T18:21:58.555Z,3.31
2017-11-30T18:24:26.139Z,3.28
2017-11-30T18:26:53.792Z,3.30
2017-11-30T18:29:21.696Z,3.31
2017-11-30T18:31:49.320Z,3.31
2017-11-30T18:34:17.230Z,3.25
2017-11-30T18:36:44.827Z,3.24
2017-11-30T18:39:12.455Z,3.28
2017-11-30T18:41:40.321Z,3.27
2017-11-30T18:44:07.950Z,3.23
2017-11-30T18:46:35.567Z,3.21
2017-11-30T18:49:03.412Z,3.03
2017-11-30T18:51:31.024Z,3.02
2017-11-30T18:53:58.633Z,3.01
2017-11-30T18:56:26.331Z,3.03
2017-11-30T18:58:53.988Z,3.03
2017-11-30T19:01:21.569Z,3.04
2017-11-30T19:03:49.382Z,3.04
2017-11-30T19:06:17.039Z,3.08
2017-11-30T19:08:44.705Z,3.02
2017-11-30T19:11:12.353Z,2.94
2017-11-30T19:13:39.963Z,2.93
2017-11-30T19:16:07.594Z,2.94
2017-11-30T19:18:35.212Z,2.96
2017-11-30T19:21:02.891Z,2.95
2017-11-30T19:23:30.476Z,2.95
2017-11-30T19:25:58.067Z,2.94
2017-11-30T19:28:25.709Z,2.91
2017-11-30T19:30:53.309Z,2.93
2017-11-30T19:33:21.103Z,2.92
2017-11-30T19:35:48.749Z,2.92
2017-11-30T19:38:16.395Z,2.92
2017-11-30T19:40:44.034Z,2.92
2017-11-30T19:43:11.888Z,2.90
2017-11-30T19:45:39.874Z,2.91
2017-11-30T19:48:07.483Z,2.93
2017-11-30T19:50:35.115Z,2.91
2017-11-30T19:53:03.132Z,2.95
2017-11-30T19:55:30.828Z,2.90
2017-11-30T19:57:58.898Z,2.88
2017-11-30T20:00:26.979Z,2.88
2017-11-30T20:02:54.633Z,2.86
2017-11-30T20:05:22.717Z,2.84
2017-11-30T20:07:50.396Z,2.87
2017-11-30T20:10:18.337Z,2.85
2017-11-30T20:12:46.112Z,2.81
2017-11-30T20:15:13.940Z,2.81
2017-11-30T20:17:41.556Z,2.81
2017-11-30T20:20:09.463Z,2.82
2017-11-30T20:22:37.219Z,2.81
2017-11-30T20:25:04.829Z,2.80
2017-11-30T20:27:32.408Z,2.78
2017-11-30T20:30:00.037Z,2.79
2017-11-30T20:32:27.639Z,2.84
2017-11-30T20:34:55.261Z,2.84
2017-11-30T20:37:22.858Z,2.84
2017-11-30T20:39:50.455Z,2.85
2017-11-30T20:42:18.372Z,2.85
2017-11-30T20:44:45.966Z,2.85
2017-11-30T20:47:13.580Z,2.84
2017-11-30T20:49:41.164Z,2.82
2017-11-30T20:52:08.764Z,2.84
2017-11-30T20:54:36.374Z,2.82
2017-11-30T20:57:03.989Z,2.86
2017-11-30T20:59:31.909Z,2.83
2017-11-30T21:01:59.492Z,2.87
2017-11-30T21:04:27.076Z,2.87
2017-11-30T21:06:55.006Z,2.88
2017-11-30T21:09:22.602Z,2.91
2017-11-30T21:11:50.527Z,2.94
2017-11-30T21:14:18.395Z,2.89
2017-11-30T21:16:46.265Z,2.89
2017-11-30T21:19:13.898Z,2.92
2017-11-30T21:21:41.907Z,2.90
2017-11-30T21:24:09.878Z,2.85
2017-11-30T21:26:37.456Z,2.88
2017-11-30T21:29:05.060Z,2.89
2017-11-30T21:31:32.693Z,2.91
2017-11-30T21:34:00.280Z,2.90
2017-11-30T21:36:28.194Z,2.90
2017-11-30T21:38:55.781Z,2.91
2017-11-30T21:41:23.377Z,2.91
2017-11-30T21:43:51.001Z,2.87
2017-11-30T21:46:18.595Z,2.85
2017-11-30T21:48:46.501Z,2.83
2017-11-30T21:51:14.138Z,2.80
2017-11-30T21:53:41.748Z,2.85
2017-11-30T21:56:09.591Z,2.88
2017-11-30T21:58:37.211Z,2.85
2017-11-30T22:01:04.805Z,2.85
2017-11-30T22:03:32.441Z,2.89
2017-11-30T22:06:01.332Z,2.91
2017-11-30T22:08:28.996Z,2.91
2017-11-30T22:11:05.896Z,2.89
2017-11-30T22:13:33.514Z,2.94
2017-11-30T22:16:01.449Z,2.93
2017-11-30T22:18:29.030Z,2.95
2017-11-30T22:20:56.633Z,2.91
2017-11-30T22:23:24.220Z,2.89
2017-11-30T22:25:52.202Z,2.87
2017-11-30T22:28:19.796Z,2.88
2017-11-30T22:30:47.603Z,2.86
2017-11-30T22:33:15.232Z,2.84
2017-11-30T22:35:43.057Z,2.83
2017-11-30T22:38:10.673Z,2.82
2017-11-30T22:40:38.276Z,2.76
2017-11-30T22:43:05.857Z,2.78
2017-11-30T22:45:33.817Z,2.80
2017-11-30T22:48:01.689Z,2.81
2017-11-30T22:50:29.672Z,2.80
2017-11-30T22:52:57.259Z,2.78
2017-11-30T22:55:24.841Z,2.76
2017-11-30T22:57:52.745Z,2.78
2017-11-30T23:00:20.374Z,2.79
2017-11-30T23:02:48.006Z,2.81
2017-11-30T23:05:15.617Z,2.81
2017-11-30T23:07:43.208Z,2.81
2017-11-30T23:10:10.811Z,2.81
2017-11-30T23:12:38.430Z,2.82
2017-11-30T23:15:06.047Z,2.81
2017-11-30T23:17:33.694Z,2.81
2017-11-30T23:20:01.310Z,2.79
2017-11-30T23:22:29.177Z,2.80
2017-11-30T23:24:57.963Z,2.78
2017-11-30T23:27:25.628Z,2.77
2017-11-30T23:29:53.228Z,2.78
2017-11-30T23:32:20.832Z,2.78
2017-11-30T23:34:48.440Z,2.78
2017-11-30T23:37:16.015Z,2.79
2017-11-30T23:39:43.637Z,2.77
2017-11-30T23:42:11.507Z,2.78
2017-11-30T23:44:39.084Z,2.78
2017-11-30T23:47:06.726Z,2.78
2017-11-30T23:49:34.300Z,2.77
2017-11-30T23:52:01.968Z,2.78
2017-11-30T23:54:29.821Z,2.77
2017-11-30T23:56:57.683Z,2.78
2017-11-30T23:59:25.319Z,2.81
